sensor_id;sensor_type;location;lat;lon;timestamp;temperature;humidity
8979;DHT22;4524;51.364;5.448;2023-05-10T00:00:13;14.50;99.90
8979;DHT22;4524;51.364;5.448;2023-05-10T00:02:42;14.60;99.90
8979;DHT22;4524;51.364;5.448;2023-05-10T00:05:10;14.60;99.90
8979;DHT22;4524;51.364;5.448;2023-05-10T00:07:38;14.60;99.90
8979;DHT22;4524;51.364;5.448;2023-05-10T00:10:07;14.60;99.90
8979;DHT22;4524;51.364;5.448;2023-05-10T00:12:37;14.60;99.90
8979;DHT22;4524;51.364;5.448;2023-05-10T00:15:06;14.60;99.90
8979;DHT22;4524;51.364;5.448;2023-05-10T00:17:34;14.50;99.90
8979;DHT22;4524;51.364;5.448;2023-05-10T00:20:02;14.50;99.90
8979;DHT22;4524;51.364;5.448;2023-05-10T00:22:31;14.50;99.90
8979;DHT22;4524;51.364;5.448;2023-05-10T00:24:59;14.50;99.90
8979;DHT22;4524;51.364;5.448;2023-05-10T00:27:27;14.50;99.90
8979;DHT22;4524;51.364;5.448;2023-05-10T00:29:56;14.50;99.90
8979;DHT22;4524;51.364;5.448;2023-05-10T00:32:24;14.50;99.90
8979;DHT22;4524;51.364;5.448;2023-05-10T00:34:52;14.50;99.90
8979;DHT22;4524;51.364;5.448;2023-05-10T00:37:20;14.50;99.90
8979;DHT22;4524;51.364;5.448;2023-05-10T00:40:07;14.50;99.90
8979;DHT22;4524;51.364;5.448;2023-05-10T00:42:35;14.60;99.90
8979;DHT22;4524;51.364;5.448;2023-05-10T00:45:06;14.50;99.90
8979;DHT22;4524;51.364;5.448;2023-05-10T00:47:35;14.60;99.90
8979;DHT22;4524;51.364;5.448;2023-05-10T00:50:03;14.60;99.90
8979;DHT22;4524;51.364;5.448;2023-05-10T00:52:32;14.60;99.90
8979;DHT22;4524;51.364;5.448;2023-05-10T00:55:00;14.60;99.90
8979;DHT22;4524;51.364;5.448;2023-05-10T00:57:31;14.50;99.90
8979;DHT22;4524;51.364;5.448;2023-05-10T00:59:59;14.60;99.90
8979;DHT22;4524;51.364;5.448;2023-05-10T01:02:28;14.60;99.90
8979;DHT22;4524;51.364;5.448;2023-05-10T01:04:56;14.50;99.90
8979;DHT22;4524;51.364;5.448;2023-05-10T01:07:24;14.50;99.90
8979;DHT22;4524;51.364;5.448;2023-05-10T01:09:52;14.50;99.90
8979;DHT22;4524;51.364;5.448;2023-05-10T01:12:20;14.50;99.90
8979;DHT22;4524;51.364;5.448;2023-05-10T01:14:48;14.50;99.90
8979;DHT22;4524;51.364;5.448;2023-05-10T01:17:17;14.40;99.90
8979;DHT22;4524;51.364;5.448;2023-05-10T01:19:46;14.30;99.90
8979;DHT22;4524;51.364;5.448;2023-05-10T01:22:30;14.20;99.90
8979;DHT22;4524;51.364;5.448;2023-05-10T01:28:34;14.00;1.00
8979;DHT22;4524;51.364;5.448;2023-05-10T01:31:21;14.00;1.00
8979;DHT22;4524;51.364;5.448;2023-05-10T01:33:55;13.90;1.00
8979;DHT22;4524;51.364;5.448;2023-05-10T01:36:29;13.90;1.00
8979;DHT22;4524;51.364;5.448;2023-05-10T01:39:02;14.00;1.00
8979;DHT22;4524;51.364;5.448;2023-05-10T01:41:41;14.00;1.00
8979;DHT22;4524;51.364;5.448;2023-05-10T01:44:18;14.10;1.00
8979;DHT22;4524;51.364;5.448;2023-05-10T01:46:51;14.00;1.00
8979;DHT22;4524;51.364;5.448;2023-05-10T01:49:25;14.00;1.00
8979;DHT22;4524;51.364;5.448;2023-05-10T01:51:56;14.00;1.00
8979;DHT22;4524;51.364;5.448;2023-05-10T01:54:27;13.90;1.00
8979;DHT22;4524;51.364;5.448;2023-05-10T01:57:01;13.80;1.00
8979;DHT22;4524;51.364;5.448;2023-05-10T01:59:34;13.70;1.00
8979;DHT22;4524;51.364;5.448;2023-05-10T02:02:06;13.70;1.00
8979;DHT22;4524;51.364;5.448;2023-05-10T02:04:37;13.70;1.00
8979;DHT22;4524;51.364;5.448;2023-05-10T02:07:06;13.70;1.00
8979;DHT22;4524;51.364;5.448;2023-05-10T02:09:36;13.80;1.00
8979;DHT22;4524;51.364;5.448;2023-05-10T02:12:05;13.80;1.00
8979;DHT22;4524;51.364;5.448;2023-05-10T02:14:36;13.70;1.00
8979;DHT22;4524;51.364;5.448;2023-05-10T02:17:05;13.70;1.00
8979;DHT22;4524;51.364;5.448;2023-05-10T02:19:37;13.70;1.00
8979;DHT22;4524;51.364;5.448;2023-05-10T02:22:06;13.70;1.00
8979;DHT22;4524;51.364;5.448;2023-05-10T02:24:36;13.70;1.00
8979;DHT22;4524;51.364;5.448;2023-05-10T02:27:04;13.80;1.00
8979;DHT22;4524;51.364;5.448;2023-05-10T02:29:35;13.90;1.00
8979;DHT22;4524;51.364;5.448;2023-05-10T02:32:04;13.90;1.00
8979;DHT22;4524;51.364;5.448;2023-05-10T02:34:33;14.00;1.00
8979;DHT22;4524;51.364;5.448;2023-05-10T02:37:04;14.00;1.00
8979;DHT22;4524;51.364;5.448;2023-05-10T02:39:33;14.00;1.00
8979;DHT22;4524;51.364;5.448;2023-05-10T02:42:03;14.00;1.00
8979;DHT22;4524;51.364;5.448;2023-05-10T02:44:32;14.00;99.90
8979;DHT22;4524;51.364;5.448;2023-05-10T02:47:01;14.00;99.90
8979;DHT22;4524;51.364;5.448;2023-05-10T02:49:28;13.90;99.90
8979;DHT22;4524;51.364;5.448;2023-05-10T02:52:00;13.80;99.90
8979;DHT22;4524;51.364;5.448;2023-05-10T02:54:33;13.80;1.00
8979;DHT22;4524;51.364;5.448;2023-05-10T02:57:04;13.70;1.00
8979;DHT22;4524;51.364;5.448;2023-05-10T02:59:33;13.80;1.00
8979;DHT22;4524;51.364;5.448;2023-05-10T03:02:02;13.70;1.00
8979;DHT22;4524;51.364;5.448;2023-05-10T03:04:30;13.80;1.00
8979;DHT22;4524;51.364;5.448;2023-05-10T03:06:58;13.70;1.00
8979;DHT22;4524;51.364;5.448;2023-05-10T03:09:26;13.70;1.00
8979;DHT22;4524;51.364;5.448;2023-05-10T03:12:02;13.70;1.00
8979;DHT22;4524;51.364;5.448;2023-05-10T03:14:45;13.70;1.00
8979;DHT22;4524;51.364;5.448;2023-05-10T03:17:34;13.80;1.00
8979;DHT22;4524;51.364;5.448;2023-05-10T03:20:06;13.80;1.00
8979;DHT22;4524;51.364;5.448;2023-05-10T03:22:39;13.80;1.00
8979;DHT22;4524;51.364;5.448;2023-05-10T03:25:10;13.90;1.00
8979;DHT22;4524;51.364;5.448;2023-05-10T03:27:43;13.90;1.00
8979;DHT22;4524;51.364;5.448;2023-05-10T03:30:12;13.90;1.00
8979;DHT22;4524;51.364;5.448;2023-05-10T03:32:41;13.90;1.00
8979;DHT22;4524;51.364;5.448;2023-05-10T03:35:09;13.90;99.90
8979;DHT22;4524;51.364;5.448;2023-05-10T03:37:38;13.90;1.00
8979;DHT22;4524;51.364;5.448;2023-05-10T03:40:07;13.90;1.00
8979;DHT22;4524;51.364;5.448;2023-05-10T03:42:37;13.90;1.00
8979;DHT22;4524;51.364;5.448;2023-05-10T03:45:08;13.90;1.00
8979;DHT22;4524;51.364;5.448;2023-05-10T03:47:36;13.90;1.00
8979;DHT22;4524;51.364;5.448;2023-05-10T03:50:05;14.00;1.00
8979;DHT22;4524;51.364;5.448;2023-05-10T03:52:34;14.00;1.00
8979;DHT22;4524;51.364;5.448;2023-05-10T03:55:02;14.00;99.90
8979;DHT22;4524;51.364;5.448;2023-05-10T03:57:30;14.00;99.90
8979;DHT22;4524;51.364;5.448;2023-05-10T03:59:59;14.00;99.90
8979;DHT22;4524;51.364;5.448;2023-05-10T04:02:28;14.00;99.90
8979;DHT22;4524;51.364;5.448;2023-05-10T04:04:57;14.00;99.90
8979;DHT22;4524;51.364;5.448;2023-05-10T04:07:25;14.00;99.90
8979;DHT22;4524;51.364;5.448;2023-05-10T04:09:52;14.00;99.90
8979;DHT22;4524;51.364;5.448;2023-05-10T04:12:21;14.00;99.90
8979;DHT22;4524;51.364;5.448;2023-05-10T04:14:49;14.00;99.90
8979;DHT22;4524;51.364;5.448;2023-05-10T04:17:17;14.00;99.90
8979;DHT22;4524;51.364;5.448;2023-05-10T04:19:46;14.00;99.90
8979;DHT22;4524;51.364;5.448;2023-05-10T04:22:14;14.00;99.90
8979;DHT22;4524;51.364;5.448;2023-05-10T04:24:42;14.00;99.90
8979;DHT22;4524;51.364;5.448;2023-05-10T04:27:10;14.00;99.90
8979;DHT22;4524;51.364;5.448;2023-05-10T04:29:38;14.00;99.90
8979;DHT22;4524;51.364;5.448;2023-05-10T04:32:06;14.00;99.90
8979;DHT22;4524;51.364;5.448;2023-05-10T04:34:34;13.90;99.90
8979;DHT22;4524;51.364;5.448;2023-05-10T04:37:03;14.00;99.90
8979;DHT22;4524;51.364;5.448;2023-05-10T04:39:32;14.00;99.90
8979;DHT22;4524;51.364;5.448;2023-05-10T04:42:00;14.00;99.90
8979;DHT22;4524;51.364;5.448;2023-05-10T04:44:29;14.00;99.90
8979;DHT22;4524;51.364;5.448;2023-05-10T04:46:57;14.00;99.90
8979;DHT22;4524;51.364;5.448;2023-05-10T04:49:25;14.00;99.90
8979;DHT22;4524;51.364;5.448;2023-05-10T04:51:53;14.00;99.90
8979;DHT22;4524;51.364;5.448;2023-05-10T04:54:22;14.00;99.90
8979;DHT22;4524;51.364;5.448;2023-05-10T04:56:50;14.00;99.90
8979;DHT22;4524;51.364;5.448;2023-05-10T04:59:18;14.00;99.90
8979;DHT22;4524;51.364;5.448;2023-05-10T05:01:46;14.00;99.90
8979;DHT22;4524;51.364;5.448;2023-05-10T05:04:14;13.80;99.90
8979;DHT22;4524;51.364;5.448;2023-05-10T05:06:42;13.80;99.90
8979;DHT22;4524;51.364;5.448;2023-05-10T05:09:10;13.90;99.90
8979;DHT22;4524;51.364;5.448;2023-05-10T05:11:39;13.90;99.90
8979;DHT22;4524;51.364;5.448;2023-05-10T05:14:07;13.90;99.90
8979;DHT22;4524;51.364;5.448;2023-05-10T05:16:35;13.90;99.90
8979;DHT22;4524;51.364;5.448;2023-05-10T05:19:03;14.00;99.90
8979;DHT22;4524;51.364;5.448;2023-05-10T05:21:31;14.10;99.90
8979;DHT22;4524;51.364;5.448;2023-05-10T05:24:00;14.10;99.90
8979;DHT22;4524;51.364;5.448;2023-05-10T05:26:27;14.10;99.90
8979;DHT22;4524;51.364;5.448;2023-05-10T05:28:57;14.10;99.90
8979;DHT22;4524;51.364;5.448;2023-05-10T05:31:25;14.10;99.90
8979;DHT22;4524;51.364;5.448;2023-05-10T05:33:53;14.20;99.90
8979;DHT22;4524;51.364;5.448;2023-05-10T05:36:21;14.10;99.90
8979;DHT22;4524;51.364;5.448;2023-05-10T05:38:49;14.20;99.90
8979;DHT22;4524;51.364;5.448;2023-05-10T05:41:17;14.20;99.90
8979;DHT22;4524;51.364;5.448;2023-05-10T05:43:45;14.10;99.90
8979;DHT22;4524;51.364;5.448;2023-05-10T05:46:14;14.10;99.90
8979;DHT22;4524;51.364;5.448;2023-05-10T05:48:42;14.20;99.90
8979;DHT22;4524;51.364;5.448;2023-05-10T05:51:10;14.20;99.90
8979;DHT22;4524;51.364;5.448;2023-05-10T05:53:38;14.10;98.00
8979;DHT22;4524;51.364;5.448;2023-05-10T05:56:06;14.10;99.90
8979;DHT22;4524;51.364;5.448;2023-05-10T05:58:34;14.20;99.90
8979;DHT22;4524;51.364;5.448;2023-05-10T06:01:02;14.20;99.90
8979;DHT22;4524;51.364;5.448;2023-05-10T06:03:31;14.20;95.10
8979;DHT22;4524;51.364;5.448;2023-05-10T06:05:59;14.30;99.90
8979;DHT22;4524;51.364;5.448;2023-05-10T06:08:27;14.40;99.90
8979;DHT22;4524;51.364;5.448;2023-05-10T06:10:55;14.40;99.90
8979;DHT22;4524;51.364;5.448;2023-05-10T06:13:23;14.30;99.90
8979;DHT22;4524;51.364;5.448;2023-05-10T06:15:51;14.40;94.20
8979;DHT22;4524;51.364;5.448;2023-05-10T06:18:19;14.40;99.90
8979;DHT22;4524;51.364;5.448;2023-05-10T06:20:49;14.50;99.90
8979;DHT22;4524;51.364;5.448;2023-05-10T06:23:18;14.40;99.90
8979;DHT22;4524;51.364;5.448;2023-05-10T06:25:46;14.40;94.60
8979;DHT22;4524;51.364;5.448;2023-05-10T06:28:14;14.50;99.90
8979;DHT22;4524;51.364;5.448;2023-05-10T06:30:42;14.50;84.30
8979;DHT22;4524;51.364;5.448;2023-05-10T06:33:10;14.50;99.90
8979;DHT22;4524;51.364;5.448;2023-05-10T06:35:38;14.50;93.20
8979;DHT22;4524;51.364;5.448;2023-05-10T06:38:07;14.60;99.90
8979;DHT22;4524;51.364;5.448;2023-05-10T06:40:35;14.60;99.90
8979;DHT22;4524;51.364;5.448;2023-05-10T06:43:03;14.60;77.40
8979;DHT22;4524;51.364;5.448;2023-05-10T06:45:32;14.60;66.70
8979;DHT22;4524;51.364;5.448;2023-05-10T06:48:00;14.60;96.10
8979;DHT22;4524;51.364;5.448;2023-05-10T06:50:28;14.60;99.90
8979;DHT22;4524;51.364;5.448;2023-05-10T06:52:56;14.70;91.40
8979;DHT22;4524;51.364;5.448;2023-05-10T06:55:26;14.80;76.40
8979;DHT22;4524;51.364;5.448;2023-05-10T06:57:54;14.90;68.60
8979;DHT22;4524;51.364;5.448;2023-05-10T07:00:22;14.80;35.60
8979;DHT22;4524;51.364;5.448;2023-05-10T07:02:50;14.80;40.00
8979;DHT22;4524;51.364;5.448;2023-05-10T07:05:18;15.00;1.00
8979;DHT22;4524;51.364;5.448;2023-05-10T07:07:47;15.10;13.20
8979;DHT22;4524;51.364;5.448;2023-05-10T07:10:15;15.10;22.30
8979;DHT22;4524;51.364;5.448;2023-05-10T07:12:44;15.10;5.70
8979;DHT22;4524;51.364;5.448;2023-05-10T07:15:12;15.00;1.00
8979;DHT22;4524;51.364;5.448;2023-05-10T07:17:40;15.00;94.70
8979;DHT22;4524;51.364;5.448;2023-05-10T07:20:12;14.90;35.80
8979;DHT22;4524;51.364;5.448;2023-05-10T07:22:40;14.90;39.70
8979;DHT22;4524;51.364;5.448;2023-05-10T07:25:08;14.90;59.40
8979;DHT22;4524;51.364;5.448;2023-05-10T07:27:36;14.80;33.70
8979;DHT22;4524;51.364;5.448;2023-05-10T07:30:07;14.80;20.80
8979;DHT22;4524;51.364;5.448;2023-05-10T07:32:35;14.80;17.20
8979;DHT22;4524;51.364;5.448;2023-05-10T07:35:03;14.90;21.40
8979;DHT22;4524;51.364;5.448;2023-05-10T07:37:32;15.00;4.90
8979;DHT22;4524;51.364;5.448;2023-05-10T07:40:00;15.10;1.00
8979;DHT22;4524;51.364;5.448;2023-05-10T07:42:28;15.10;23.20
8979;DHT22;4524;51.364;5.448;2023-05-10T07:44:56;15.10;2.00
8979;DHT22;4524;51.364;5.448;2023-05-10T07:47:25;15.10;1.00
8979;DHT22;4524;51.364;5.448;2023-05-10T07:49:53;15.00;55.10
8979;DHT22;4524;51.364;5.448;2023-05-10T07:52:21;14.90;17.10
8979;DHT22;4524;51.364;5.448;2023-05-10T07:54:49;14.90;34.90
8979;DHT22;4524;51.364;5.448;2023-05-10T07:57:17;15.00;69.70
8979;DHT22;4524;51.364;5.448;2023-05-10T07:59:45;14.90;48.10
8979;DHT22;4524;51.364;5.448;2023-05-10T08:02:14;15.00;5.60
8979;DHT22;4524;51.364;5.448;2023-05-10T08:04:43;15.00;22.10
8979;DHT22;4524;51.364;5.448;2023-05-10T08:07:11;14.90;1.00
8979;DHT22;4524;51.364;5.448;2023-05-10T08:09:39;14.90;5.50
8979;DHT22;4524;51.364;5.448;2023-05-10T08:12:07;14.80;1.00
8979;DHT22;4524;51.364;5.448;2023-05-10T08:14:35;14.80;2.90
8979;DHT22;4524;51.364;5.448;2023-05-10T08:17:03;14.90;1.00
8979;DHT22;4524;51.364;5.448;2023-05-10T08:19:31;15.00;1.00
8979;DHT22;4524;51.364;5.448;2023-05-10T08:22:01;15.00;1.00
8979;DHT22;4524;51.364;5.448;2023-05-10T08:24:28;15.10;1.00
8979;DHT22;4524;51.364;5.448;2023-05-10T08:26:56;15.00;1.00
8979;DHT22;4524;51.364;5.448;2023-05-10T08:29:24;15.00;1.00
8979;DHT22;4524;51.364;5.448;2023-05-10T08:31:56;15.10;1.00
8979;DHT22;4524;51.364;5.448;2023-05-10T08:34:24;15.00;1.00
8979;DHT22;4524;51.364;5.448;2023-05-10T08:36:52;15.10;1.00
8979;DHT22;4524;51.364;5.448;2023-05-10T08:39:21;15.20;1.00
8979;DHT22;4524;51.364;5.448;2023-05-10T08:42:00;15.20;1.00
8979;DHT22;4524;51.364;5.448;2023-05-10T08:44:30;15.30;1.00
8979;DHT22;4524;51.364;5.448;2023-05-10T08:46:59;15.30;1.00
8979;DHT22;4524;51.364;5.448;2023-05-10T08:49:31;15.40;1.00
8979;DHT22;4524;51.364;5.448;2023-05-10T08:52:02;15.40;1.00
8979;DHT22;4524;51.364;5.448;2023-05-10T08:54:32;15.50;1.00
8979;DHT22;4524;51.364;5.448;2023-05-10T08:57:00;15.60;1.00
8979;DHT22;4524;51.364;5.448;2023-05-10T08:59:28;15.80;1.00
8979;DHT22;4524;51.364;5.448;2023-05-10T09:01:57;15.90;1.00
8979;DHT22;4524;51.364;5.448;2023-05-10T09:04:26;16.10;1.00
8979;DHT22;4524;51.364;5.448;2023-05-10T09:06:55;16.10;99.90
8979;DHT22;4524;51.364;5.448;2023-05-10T09:09:24;16.30;1.00
8979;DHT22;4524;51.364;5.448;2023-05-10T09:11:54;16.60;1.00
8979;DHT22;4524;51.364;5.448;2023-05-10T09:14:23;16.50;1.00
8979;DHT22;4524;51.364;5.448;2023-05-10T09:16:52;16.40;99.90
8979;DHT22;4524;51.364;5.448;2023-05-10T09:19:20;16.20;99.90
8979;DHT22;4524;51.364;5.448;2023-05-10T09:21:49;16.10;99.90
8979;DHT22;4524;51.364;5.448;2023-05-10T09:24:17;16.00;99.90
8979;DHT22;4524;51.364;5.448;2023-05-10T09:26:48;15.90;99.90
8979;DHT22;4524;51.364;5.448;2023-05-10T09:29:17;15.90;99.90
8979;DHT22;4524;51.364;5.448;2023-05-10T09:31:47;15.90;99.90
8979;DHT22;4524;51.364;5.448;2023-05-10T09:34:18;16.10;1.00
8979;DHT22;4524;51.364;5.448;2023-05-10T09:36:53;15.90;99.90
8979;DHT22;4524;51.364;5.448;2023-05-10T09:39:30;15.90;1.00
8979;DHT22;4524;51.364;5.448;2023-05-10T09:41:58;16.00;99.90
8979;DHT22;4524;51.364;5.448;2023-05-10T09:44:28;16.20;99.90
8979;DHT22;4524;51.364;5.448;2023-05-10T09:46:56;16.40;1.00
8979;DHT22;4524;51.364;5.448;2023-05-10T09:49:25;16.80;99.90
8979;DHT22;4524;51.364;5.448;2023-05-10T09:52:03;17.20;1.00
8979;DHT22;4524;51.364;5.448;2023-05-10T09:54:32;17.40;99.90
8979;DHT22;4524;51.364;5.448;2023-05-10T09:57:00;17.80;99.90
8979;DHT22;4524;51.364;5.448;2023-05-10T09:59:29;18.00;99.90
8979;DHT22;4524;51.364;5.448;2023-05-10T10:01:59;18.10;99.90
8979;DHT22;4524;51.364;5.448;2023-05-10T10:04:28;18.20;99.90
8979;DHT22;4524;51.364;5.448;2023-05-10T10:07:00;18.10;99.90
8979;DHT22;4524;51.364;5.448;2023-05-10T10:09:29;18.00;99.90
8979;DHT22;4524;51.364;5.448;2023-05-10T10:11:57;17.80;99.90
8979;DHT22;4524;51.364;5.448;2023-05-10T10:14:26;17.80;99.90
8979;DHT22;4524;51.364;5.448;2023-05-10T10:16:55;17.80;99.90
8979;DHT22;4524;51.364;5.448;2023-05-10T10:19:35;18.00;99.90
8979;DHT22;4524;51.364;5.448;2023-05-10T10:22:04;18.00;99.90
8979;DHT22;4524;51.364;5.448;2023-05-10T10:24:32;18.10;99.90
8979;DHT22;4524;51.364;5.448;2023-05-10T10:27:07;18.20;99.90
8979;DHT22;4524;51.364;5.448;2023-05-10T10:29:39;18.40;99.90
8979;DHT22;4524;51.364;5.448;2023-05-10T10:32:18;18.60;99.90
8979;DHT22;4524;51.364;5.448;2023-05-10T10:34:47;18.70;99.90
8979;DHT22;4524;51.364;5.448;2023-05-10T10:37:15;18.90;99.90
8979;DHT22;4524;51.364;5.448;2023-05-10T10:39:44;18.80;99.90
8979;DHT22;4524;51.364;5.448;2023-05-10T10:42:12;18.90;99.90
8979;DHT22;4524;51.364;5.448;2023-05-10T10:44:40;18.90;99.90
8979;DHT22;4524;51.364;5.448;2023-05-10T10:47:22;18.80;99.90
8979;DHT22;4524;51.364;5.448;2023-05-10T10:49:53;18.50;99.90
8979;DHT22;4524;51.364;5.448;2023-05-10T10:52:33;18.20;99.90
8979;DHT22;4524;51.364;5.448;2023-05-10T10:55:03;18.00;99.90
8979;DHT22;4524;51.364;5.448;2023-05-10T10:57:33;17.80;99.90
8979;DHT22;4524;51.364;5.448;2023-05-10T11:00:23;17.60;99.90
8979;DHT22;4524;51.364;5.448;2023-05-10T11:02:55;17.50;99.90
8979;DHT22;4524;51.364;5.448;2023-05-10T11:05:25;17.40;99.90
8979;DHT22;4524;51.364;5.448;2023-05-10T11:07:54;17.40;99.90
8979;DHT22;4524;51.364;5.448;2023-05-10T11:10:23;17.40;99.90
8979;DHT22;4524;51.364;5.448;2023-05-10T11:12:52;17.50;99.90
8979;DHT22;4524;51.364;5.448;2023-05-10T11:15:28;17.60;99.90
8979;DHT22;4524;51.364;5.448;2023-05-10T11:17:58;17.60;99.90
8979;DHT22;4524;51.364;5.448;2023-05-10T11:20:27;17.70;99.90
8979;DHT22;4524;51.364;5.448;2023-05-10T11:23:11;17.80;99.90
8979;DHT22;4524;51.364;5.448;2023-05-10T11:25:42;17.90;99.90
8979;DHT22;4524;51.364;5.448;2023-05-10T11:28:11;17.90;99.90
8979;DHT22;4524;51.364;5.448;2023-05-10T11:30:41;18.00;99.90
8979;DHT22;4524;51.364;5.448;2023-05-10T11:33:15;18.10;99.90
8979;DHT22;4524;51.364;5.448;2023-05-10T11:35:43;18.30;99.90
8979;DHT22;4524;51.364;5.448;2023-05-10T11:38:13;18.30;99.90
8979;DHT22;4524;51.364;5.448;2023-05-10T11:40:41;18.40;99.90
8979;DHT22;4524;51.364;5.448;2023-05-10T11:43:09;18.40;99.90
8979;DHT22;4524;51.364;5.448;2023-05-10T11:45:41;18.30;99.90
8979;DHT22;4524;51.364;5.448;2023-05-10T11:48:11;18.40;99.90
8979;DHT22;4524;51.364;5.448;2023-05-10T11:50:39;18.50;99.90
8979;DHT22;4524;51.364;5.448;2023-05-10T11:53:07;18.60;99.90
8979;DHT22;4524;51.364;5.448;2023-05-10T11:55:35;18.60;99.90
8979;DHT22;4524;51.364;5.448;2023-05-10T11:58:03;18.80;99.90
8979;DHT22;4524;51.364;5.448;2023-05-10T12:00:31;18.90;99.90
8979;DHT22;4524;51.364;5.448;2023-05-10T12:03:00;19.10;99.90
8979;DHT22;4524;51.364;5.448;2023-05-10T12:05:33;19.20;99.90
8979;DHT22;4524;51.364;5.448;2023-05-10T12:08:14;19.20;99.90
8979;DHT22;4524;51.364;5.448;2023-05-10T12:10:42;19.00;99.90
8979;DHT22;4524;51.364;5.448;2023-05-10T12:13:13;19.10;99.90
8979;DHT22;4524;51.364;5.448;2023-05-10T12:15:43;19.00;99.90
8979;DHT22;4524;51.364;5.448;2023-05-10T12:18:11;19.00;99.90
8979;DHT22;4524;51.364;5.448;2023-05-10T12:20:41;18.80;99.90
8979;DHT22;4524;51.364;5.448;2023-05-10T12:23:10;19.00;99.90
8979;DHT22;4524;51.364;5.448;2023-05-10T12:25:38;18.80;99.90
8979;DHT22;4524;51.364;5.448;2023-05-10T12:28:08;18.90;99.90
8979;DHT22;4524;51.364;5.448;2023-05-10T12:30:36;19.00;99.90
8979;DHT22;4524;51.364;5.448;2023-05-10T12:33:08;19.00;99.90
8979;DHT22;4524;51.364;5.448;2023-05-10T12:35:48;19.00;99.90
8979;DHT22;4524;51.364;5.448;2023-05-10T12:38:27;19.10;99.90
8979;DHT22;4524;51.364;5.448;2023-05-10T12:40:57;19.30;99.90
8979;DHT22;4524;51.364;5.448;2023-05-10T12:43:25;19.40;99.90
8979;DHT22;4524;51.364;5.448;2023-05-10T12:45:53;19.30;99.90
8979;DHT22;4524;51.364;5.448;2023-05-10T12:48:21;19.50;99.90
8979;DHT22;4524;51.364;5.448;2023-05-10T12:50:50;19.70;99.90
8979;DHT22;4524;51.364;5.448;2023-05-10T12:53:18;19.80;99.90
8979;DHT22;4524;51.364;5.448;2023-05-10T12:55:46;19.50;99.90
8979;DHT22;4524;51.364;5.448;2023-05-10T12:58:14;19.40;99.90
8979;DHT22;4524;51.364;5.448;2023-05-10T13:00:58;19.30;99.90
8979;DHT22;4524;51.364;5.448;2023-05-10T13:03:26;19.10;99.90
8979;DHT22;4524;51.364;5.448;2023-05-10T13:05:56;19.00;99.90
8979;DHT22;4524;51.364;5.448;2023-05-10T13:08:24;19.00;99.90
8979;DHT22;4524;51.364;5.448;2023-05-10T13:10:52;18.80;99.90
8979;DHT22;4524;51.364;5.448;2023-05-10T13:13:20;18.50;99.90
8979;DHT22;4524;51.364;5.448;2023-05-10T13:15:47;18.50;99.90
8979;DHT22;4524;51.364;5.448;2023-05-10T13:18:15;18.40;99.90
8979;DHT22;4524;51.364;5.448;2023-05-10T13:20:43;18.10;99.90
8979;DHT22;4524;51.364;5.448;2023-05-10T13:23:13;18.20;99.90
8979;DHT22;4524;51.364;5.448;2023-05-10T13:25:41;18.20;99.90
8979;DHT22;4524;51.364;5.448;2023-05-10T13:28:09;18.20;99.90
8979;DHT22;4524;51.364;5.448;2023-05-10T13:30:37;18.10;99.90
8979;DHT22;4524;51.364;5.448;2023-05-10T13:33:04;18.10;99.90
8979;DHT22;4524;51.364;5.448;2023-05-10T13:35:32;18.10;99.90
8979;DHT22;4524;51.364;5.448;2023-05-10T13:38:00;18.00;99.90
8979;DHT22;4524;51.364;5.448;2023-05-10T13:40:30;18.00;99.90
8979;DHT22;4524;51.364;5.448;2023-05-10T13:42:57;17.90;99.90
8979;DHT22;4524;51.364;5.448;2023-05-10T13:45:25;17.80;99.90
8979;DHT22;4524;51.364;5.448;2023-05-10T13:47:54;17.80;99.90
8979;DHT22;4524;51.364;5.448;2023-05-10T13:50:22;17.60;99.90
8979;DHT22;4524;51.364;5.448;2023-05-10T13:52:50;17.50;99.90
8979;DHT22;4524;51.364;5.448;2023-05-10T13:55:17;17.10;99.90
8979;DHT22;4524;51.364;5.448;2023-05-10T13:57:47;16.90;99.90
8979;DHT22;4524;51.364;5.448;2023-05-10T14:00:15;16.70;99.90
8979;DHT22;4524;51.364;5.448;2023-05-10T14:02:43;16.30;99.90
8979;DHT22;4524;51.364;5.448;2023-05-10T14:05:12;16.30;99.90
8979;DHT22;4524;51.364;5.448;2023-05-10T14:07:40;16.20;99.90
8979;DHT22;4524;51.364;5.448;2023-05-10T14:10:08;15.90;99.90
8979;DHT22;4524;51.364;5.448;2023-05-10T14:12:36;15.90;99.90
8979;DHT22;4524;51.364;5.448;2023-05-10T14:15:06;15.90;99.90
8979;DHT22;4524;51.364;5.448;2023-05-10T14:17:36;16.00;99.90
8979;DHT22;4524;51.364;5.448;2023-05-10T14:20:06;16.00;99.90
8979;DHT22;4524;51.364;5.448;2023-05-10T14:22:34;16.10;99.90
8979;DHT22;4524;51.364;5.448;2023-05-10T14:25:02;16.10;99.90
8979;DHT22;4524;51.364;5.448;2023-05-10T14:27:31;15.90;99.90
8979;DHT22;4524;51.364;5.448;2023-05-10T14:29:59;15.90;99.90
8979;DHT22;4524;51.364;5.448;2023-05-10T14:32:29;15.90;99.90
8979;DHT22;4524;51.364;5.448;2023-05-10T14:34:58;15.90;99.90
8979;DHT22;4524;51.364;5.448;2023-05-10T14:37:26;15.90;99.90
8979;DHT22;4524;51.364;5.448;2023-05-10T14:39:54;15.80;99.90
8979;DHT22;4524;51.364;5.448;2023-05-10T14:42:22;15.80;99.90
8979;DHT22;4524;51.364;5.448;2023-05-10T14:44:50;15.70;99.90
8979;DHT22;4524;51.364;5.448;2023-05-10T14:47:18;15.70;99.90
8979;DHT22;4524;51.364;5.448;2023-05-10T14:49:47;15.60;99.90
8979;DHT22;4524;51.364;5.448;2023-05-10T14:52:15;15.60;99.90
8979;DHT22;4524;51.364;5.448;2023-05-10T14:54:43;15.60;99.90
8979;DHT22;4524;51.364;5.448;2023-05-10T14:57:11;15.60;99.90
8979;DHT22;4524;51.364;5.448;2023-05-10T14:59:39;15.60;99.90
8979;DHT22;4524;51.364;5.448;2023-05-10T15:02:07;15.50;99.90
8979;DHT22;4524;51.364;5.448;2023-05-10T15:04:37;15.40;99.90
8979;DHT22;4524;51.364;5.448;2023-05-10T15:07:07;15.40;99.90
8979;DHT22;4524;51.364;5.448;2023-05-10T15:09:35;15.20;99.90
8979;DHT22;4524;51.364;5.448;2023-05-10T15:12:03;14.90;74.50
8979;DHT22;4524;51.364;5.448;2023-05-10T15:14:31;14.60;99.90
8979;DHT22;4524;51.364;5.448;2023-05-10T15:16:59;14.60;99.90
8979;DHT22;4524;51.364;5.448;2023-05-10T15:19:27;14.60;99.90
8979;DHT22;4524;51.364;5.448;2023-05-10T15:21:56;14.60;99.90
8979;DHT22;4524;51.364;5.448;2023-05-10T15:24:25;14.60;99.90
8979;DHT22;4524;51.364;5.448;2023-05-10T15:26:53;14.70;99.90
8979;DHT22;4524;51.364;5.448;2023-05-10T15:29:21;14.80;99.90
8979;DHT22;4524;51.364;5.448;2023-05-10T15:31:50;14.90;99.90
8979;DHT22;4524;51.364;5.448;2023-05-10T15:34:18;15.00;99.90
8979;DHT22;4524;51.364;5.448;2023-05-10T15:36:46;15.10;99.90
8979;DHT22;4524;51.364;5.448;2023-05-10T15:39:14;15.20;99.90
8979;DHT22;4524;51.364;5.448;2023-05-10T15:41:43;15.20;92.30
8979;DHT22;4524;51.364;5.448;2023-05-10T15:44:11;15.20;99.90
8979;DHT22;4524;51.364;5.448;2023-05-10T15:46:39;15.10;99.90
8979;DHT22;4524;51.364;5.448;2023-05-10T15:49:07;14.70;97.80
8979;DHT22;4524;51.364;5.448;2023-05-10T15:51:35;14.40;99.90
8979;DHT22;4524;51.364;5.448;2023-05-10T15:54:03;14.20;99.90
8979;DHT22;4524;51.364;5.448;2023-05-10T15:56:34;14.20;99.90
8979;DHT22;4524;51.364;5.448;2023-05-10T15:59:03;14.10;99.90
8979;DHT22;4524;51.364;5.448;2023-05-10T16:01:32;14.20;99.90
8979;DHT22;4524;51.364;5.448;2023-05-10T16:04:00;14.20;99.90
8979;DHT22;4524;51.364;5.448;2023-05-10T16:06:28;14.10;99.90
8979;DHT22;4524;51.364;5.448;2023-05-10T16:08:57;14.10;99.90
8979;DHT22;4524;51.364;5.448;2023-05-10T16:11:24;14.00;99.90
8979;DHT22;4524;51.364;5.448;2023-05-10T16:13:52;14.00;99.90
8979;DHT22;4524;51.364;5.448;2023-05-10T16:16:22;14.00;99.90
8979;DHT22;4524;51.364;5.448;2023-05-10T16:18:50;14.10;72.30
8979;DHT22;4524;51.364;5.448;2023-05-10T16:21:18;14.10;93.80